createdAt,value
2023-05-09T00:00:37.176Z,95.29
2023-05-09T00:01:37.180Z,95.13
2023-05-09T00:02:37.167Z,95.34
2023-05-09T00:03:37.140Z,95.34
2023-05-09T00:04:37.140Z,95.09
2023-05-09T00:05:37.109Z,95.70
2023-05-09T00:06:37.088Z,95.54
2023-05-09T00:07:37.092Z,95.85
2023-05-09T00:08:37.080Z,96.56
2023-05-09T00:09:37.176Z,96.92
2023-05-09T00:10:37.073Z,96.61
2023-05-09T00:11:37.070Z,96.36
2023-05-09T00:12:37.081Z,96.92
2023-05-09T00:13:37.030Z,96.30
2023-05-09T00:14:37.056Z,97.33
2023-05-09T00:15:37.067Z,97.57
2023-05-09T00:16:37.134Z,97.57
2023-05-09T00:17:37.013Z,97.83
2023-05-09T00:18:37.014Z,96.61
2023-05-09T00:19:36.985Z,96.51
2023-05-09T00:20:37.002Z,95.69
2023-05-09T00:21:37.108Z,95.89
2023-05-09T00:22:36.973Z,96.20
2023-05-09T00:23:36.954Z,96.61
2023-05-09T00:24:36.954Z,96.30
2023-05-09T00:25:37.017Z,96.20
2023-05-09T00:26:36.977Z,95.69
2023-05-09T00:27:36.916Z,96.30
2023-05-09T00:28:36.948Z,95.79
2023-05-09T00:29:36.912Z,96.20
2023-05-09T00:30:36.910Z,95.79
2023-05-09T00:31:36.948Z,95.69
2023-05-09T00:32:36.944Z,96.14
2023-05-09T00:33:36.864Z,95.94
2023-05-09T00:34:36.874Z,96.10
2023-05-09T00:35:36.855Z,96.96
2023-05-09T00:36:36.848Z,97.67
2023-05-09T00:37:36.855Z,97.57
2023-05-09T00:38:36.863Z,97.67
2023-05-09T00:39:36.819Z,97.47
2023-05-09T00:40:36.824Z,97.47
2023-05-09T00:41:36.888Z,97.27
2023-05-09T00:42:36.819Z,97.78
2023-05-09T00:43:36.786Z,96.75
2023-05-09T00:44:36.821Z,96.45
2023-05-09T00:45:36.787Z,97.16
2023-05-09T00:46:36.912Z,97.37
2023-05-09T00:47:36.774Z,97.62
2023-05-09T00:48:36.769Z,97.41
2023-05-09T00:49:36.747Z,97.72
2023-05-09T00:50:36.758Z,97.41
2023-05-09T00:51:36.718Z,97.31
2023-05-09T00:52:36.729Z,97.67
2023-05-09T00:53:36.738Z,97.67
2023-05-09T00:54:36.716Z,97.27
2023-05-09T00:55:36.719Z,98.24
2023-05-09T00:56:36.696Z,97.72
2023-05-09T00:57:36.768Z,97.62
2023-05-09T00:58:36.682Z,97.72
2023-05-09T00:59:36.675Z,97.72
2023-05-09T01:00:36.684Z,97.52
2023-05-09T01:01:36.742Z,98.65
2023-05-09T01:02:36.708Z,99.05
2023-05-09T01:03:36.793Z,98.18
2023-05-09T01:04:36.618Z,98.54
2023-05-09T01:05:36.606Z,98.24
2023-05-09T01:06:36.640Z,97.62
2023-05-09T01:07:36.633Z,97.41
2023-05-09T01:08:36.615Z,97.52
2023-05-09T01:09:36.589Z,98.99
2023-05-09T01:10:36.583Z,98.13
2023-05-09T01:11:36.566Z,98.49
2023-05-09T01:12:36.580Z,99.10
2023-05-09T01:13:36.669Z,98.79
2023-05-09T01:14:36.573Z,98.44
2023-05-09T01:15:36.597Z,98.99
2023-05-09T01:16:36.542Z,98.74
2023-05-09T01:17:36.569Z,98.18
2023-05-09T01:18:36.547Z,98.54
2023-05-09T01:19:36.519Z,98.65
2023-05-09T01:20:36.515Z,99.82
2023-05-09T01:21:36.494Z,99.71
2023-05-09T01:22:36.507Z,99.46
2023-05-09T01:23:36.483Z,99.41
2023-05-09T01:24:36.528Z,99.66
2023-05-09T01:25:36.521Z,99.99
2023-05-09T01:26:36.486Z,99.99
2023-05-09T01:27:36.464Z,99.77
2023-05-09T01:28:36.448Z,99.66
2023-05-09T01:29:36.594Z,99.99
2023-05-09T01:30:36.484Z,99.77
2023-05-09T01:31:36.481Z,99.56
2023-05-09T01:32:36.492Z,99.99
2023-05-09T01:33:36.389Z,99.99
2023-05-09T01:34:36.394Z,99.99
2023-05-09T01:35:36.409Z,99.99
2023-05-09T01:36:36.433Z,99.99
2023-05-09T01:37:36.365Z,99.99
2023-05-09T01:38:36.947Z,99.99
2023-05-09T01:39:36.373Z,99.99
2023-05-09T01:40:36.939Z,99.99
2023-05-09T01:41:36.324Z,99.99
2023-05-09T01:42:36.358Z,99.99
2023-05-09T01:43:36.405Z,99.99
2023-05-09T01:44:36.312Z,99.99
2023-05-09T01:45:36.371Z,99.99
2023-05-09T01:46:36.325Z,99.99
2023-05-09T01:47:36.317Z,99.99
2023-05-09T01:48:36.310Z,99.99
2023-05-09T01:49:36.271Z,99.99
2023-05-09T01:50:36.249Z,99.99
2023-05-09T01:51:36.250Z,99.99
2023-05-09T01:52:36.246Z,99.99
2023-05-09T01:53:36.296Z,99.99
2023-05-09T01:54:36.315Z,99.99
2023-05-09T01:55:36.239Z,99.99
2023-05-09T01:56:36.219Z,99.99
2023-05-09T01:57:36.193Z,99.99
2023-05-09T01:58:36.236Z,99.99
2023-05-09T01:59:36.170Z,99.99
2023-05-09T02:00:36.213Z,99.99
2023-05-09T02:01:36.270Z,99.99
2023-05-09T02:02:36.234Z,99.99
2023-05-09T02:03:36.139Z,99.99
2023-05-09T02:04:36.155Z,99.99
2023-05-09T02:05:36.131Z,99.99
2023-05-09T02:06:36.174Z,99.99
2023-05-09T02:07:36.130Z,99.99
2023-05-09T02:08:36.152Z,99.99
2023-05-09T02:09:36.112Z,99.99
2023-05-09T02:10:36.096Z,99.99
2023-05-09T02:11:36.105Z,99.99
2023-05-09T02:12:36.080Z,99.99
2023-05-09T02:13:36.064Z,99.99
2023-05-09T02:14:36.067Z,99.99
2023-05-09T02:15:36.055Z,99.99
2023-05-09T02:16:36.140Z,99.99
2023-05-09T02:17:36.187Z,99.99
2023-05-09T02:18:36.029Z,99.99
2023-05-09T02:19:36.000Z,99.99
2023-05-09T02:20:36.037Z,99.99
2023-05-09T02:21:36.003Z,99.99
2023-05-09T02:22:36.008Z,99.99
2023-05-09T02:23:35.991Z,99.91
2023-05-09T02:24:36.006Z,99.91
2023-05-09T02:25:35.961Z,99.71
2023-05-09T02:26:35.988Z,99.91
2023-05-09T02:27:35.939Z,99.82
2023-05-09T02:28:35.947Z,99.15
2023-05-09T02:29:35.915Z,99.10
2023-05-09T02:30:35.959Z,98.90
2023-05-09T02:31:35.959Z,99.10
2023-05-09T02:32:36.017Z,99.66
2023-05-09T02:33:36.086Z,99.99
2023-05-09T02:34:35.892Z,99.99
2023-05-09T02:35:35.890Z,99.99
2023-05-09T02:36:35.882Z,99.99
2023-05-09T02:37:35.866Z,99.99
2023-05-09T02:38:35.877Z,99.99
2023-05-09T02:39:35.839Z,99.99
2023-05-09T02:40:35.848Z,99.99
2023-05-09T02:41:35.831Z,99.99
2023-05-09T02:42:35.849Z,99.99
2023-05-09T02:43:35.808Z,99.99
2023-05-09T02:44:35.856Z,99.99
2023-05-09T02:45:35.799Z,99.99
2023-05-09T02:46:35.872Z,99.99
2023-05-09T02:47:35.815Z,99.99
2023-05-09T02:48:35.798Z,99.99
2023-05-09T02:49:35.854Z,99.99
2023-05-09T02:50:35.791Z,99.99
2023-05-09T02:51:35.747Z,99.99
2023-05-09T02:52:35.863Z,99.99
2023-05-09T02:53:35.782Z,99.99
2023-05-09T02:54:35.731Z,99.99
2023-05-09T02:55:35.701Z,99.99
2023-05-09T02:56:35.704Z,99.99
2023-05-09T02:57:35.695Z,99.99
2023-05-09T02:58:35.699Z,99.99
2023-05-09T02:59:35.783Z,99.99
2023-05-09T03:00:35.711Z,99.99
2023-05-09T03:01:35.697Z,99.99
2023-05-09T03:02:35.780Z,99.99
2023-05-09T03:03:35.738Z,99.99
2023-05-09T03:04:35.647Z,99.99
2023-05-09T03:05:35.778Z,99.99
2023-05-09T03:06:35.646Z,99.99
2023-05-09T03:07:35.627Z,99.99
2023-05-09T03:08:35.630Z,99.99
2023-05-09T03:09:35.595Z,99.99
2023-05-09T03:10:35.593Z,99.99
2023-05-09T03:11:35.605Z,99.99
2023-05-09T03:12:35.584Z,99.99
2023-05-09T03:13:35.566Z,99.99
2023-05-09T03:14:35.558Z,99.99
2023-05-09T03:15:35.559Z,99.99
2023-05-09T03:16:35.565Z,99.99
2023-05-09T03:17:35.600Z,99.99
2023-05-09T03:18:35.541Z,99.99
2023-05-09T03:19:35.528Z,99.99
2023-05-09T03:20:35.547Z,99.99
2023-05-09T03:21:35.601Z,99.99
2023-05-09T03:22:35.509Z,99.99
2023-05-09T03:23:35.512Z,99.99
2023-05-09T03:24:35.497Z,99.99
2023-05-09T03:25:35.475Z,99.99
2023-05-09T03:26:35.479Z,99.99
2023-05-09T03:27:36.467Z,99.99
2023-05-09T03:28:35.497Z,99.99
2023-05-09T03:29:35.451Z,99.99
2023-05-09T03:30:35.452Z,99.99
2023-05-09T03:31:35.445Z,99.99
2023-05-09T03:32:35.452Z,99.99
2023-05-09T03:33:35.409Z,99.99
2023-05-09T03:34:35.536Z,99.99
2023-05-09T03:35:35.395Z,99.99
2023-05-09T03:36:35.452Z,99.99
2023-05-09T03:37:35.457Z,99.99
2023-05-09T03:38:35.376Z,99.99
2023-05-09T03:39:35.376Z,99.99
2023-05-09T03:40:35.371Z,99.99
2023-05-09T03:41:35.336Z,99.99
2023-05-09T03:42:35.349Z,99.99
2023-05-09T03:43:35.343Z,99.99
2023-05-09T03:44:35.335Z,99.95
2023-05-09T03:45:35.381Z,99.99
2023-05-09T03:46:35.332Z,99.99
2023-05-09T03:47:35.342Z,99.99
2023-05-09T03:48:35.319Z,99.99
2023-05-09T03:49:35.272Z,99.99
2023-05-09T03:50:35.264Z,99.99
2023-05-09T03:51:35.297Z,99.99
2023-05-09T03:52:35.253Z,99.99
2023-05-09T03:53:35.246Z,99.99
2023-05-09T03:54:35.252Z,99.99
2023-05-09T03:55:35.225Z,99.99
2023-05-09T03:56:35.231Z,99.99
2023-05-09T03:57:35.255Z,99.99
2023-05-09T03:58:35.224Z,99.99
2023-05-09T03:59:35.193Z,99.99
2023-05-09T04:00:35.209Z,99.99
2023-05-09T04:01:42.751Z,99.99
2023-05-09T04:02:35.296Z,99.99
2023-05-09T04:03:35.271Z,99.99
2023-05-09T04:04:35.159Z,99.99
2023-05-09T04:05:35.139Z,99.99
2023-05-09T04:06:35.160Z,99.99
2023-05-09T04:07:35.140Z,99.99
2023-05-09T04:08:35.118Z,99.99
2023-05-09T04:09:35.251Z,99.51
2023-05-09T04:10:35.112Z,98.90
2023-05-09T04:11:35.215Z,98.65
2023-05-09T04:12:35.135Z,97.47
2023-05-09T04:13:35.125Z,97.16
2023-05-09T04:14:35.092Z,95.67
2023-05-09T04:15:35.126Z,95.06
2023-05-09T04:16:35.108Z,96.25
2023-05-09T04:17:35.113Z,95.02
2023-05-09T04:18:35.030Z,95.47
2023-05-09T04:19:35.119Z,96.33
2023-05-09T04:20:35.043Z,96.49
2023-05-09T04:21:35.078Z,95.84
2023-05-09T04:22:35.045Z,95.84
2023-05-09T04:23:35.026Z,95.73
2023-05-09T04:24:34.996Z,95.38
2023-05-09T04:25:35.070Z,95.03
2023-05-09T04:26:34.982Z,93.40
2023-05-09T04:27:35.008Z,93.29
2023-05-09T04:28:34.955Z,93.99
2023-05-09T04:29:34.962Z,94.87
2023-05-09T04:30:34.996Z,94.06
2023-05-09T04:31:35.046Z,95.02
2023-05-09T04:32:35.031Z,95.67
2023-05-09T04:33:35.067Z,97.66
2023-05-09T04:34:34.997Z,97.87
2023-05-09T04:35:34.916Z,98.38
2023-05-09T04:36:35.520Z,98.03
2023-05-09T04:37:34.902Z,97.37
2023-05-09T04:38:34.904Z,95.69
2023-05-09T04:39:34.934Z,93.66
2023-05-09T04:40:34.878Z,92.84
2023-05-09T04:41:34.941Z,92.19
2023-05-09T04:42:34.912Z,90.41
2023-05-09T04:43:34.851Z,90.92
2023-05-09T04:44:34.817Z,89.34
2023-05-09T04:45:34.879Z,89.75
2023-05-09T04:46:34.810Z,88.24
2023-05-09T04:47:34.830Z,88.31
2023-05-09T04:48:34.793Z,87.43
2023-05-09T04:49:34.790Z,87.73
2023-05-09T04:50:34.807Z,86.43
2023-05-09T04:51:34.786Z,87.16
2023-05-09T04:52:34.760Z,87.94
2023-05-09T04:53:34.766Z,87.63
2023-05-09T04:54:35.009Z,87.08
2023-05-09T04:55:34.786Z,86.02
2023-05-09T04:56:34.762Z,85.92
2023-05-09T04:57:35.164Z,85.00
2023-05-09T04:58:34.721Z,85.92
2023-05-09T04:59:34.722Z,85.00
2023-05-09T05:00:34.703Z,85.23
2023-05-09T05:01:34.788Z,84.11
2023-05-09T05:02:34.726Z,82.20
2023-05-09T05:03:34.703Z,81.62
2023-05-09T05:04:34.760Z,79.69
2023-05-09T05:05:36.991Z,79.51
2023-05-09T05:06:34.666Z,78.94
2023-05-09T05:07:34.757Z,79.96
2023-05-09T05:08:34.697Z,80.37
2023-05-09T05:09:34.704Z,81.39
2023-05-09T05:10:34.640Z,81.96
2023-05-09T05:11:34.613Z,80.91
2023-05-09T05:12:34.619Z,82.06
2023-05-09T05:13:34.727Z,81.59
2023-05-09T05:14:34.670Z,81.68
2023-05-09T05:15:34.587Z,79.03
2023-05-09T05:16:35.083Z,77.34
2023-05-09T05:17:34.604Z,75.99
2023-05-09T05:18:34.570Z,74.13
2023-05-09T05:19:34.615Z,74.33
2023-05-09T05:20:34.542Z,73.99
2023-05-09T05:21:34.670Z,76.26
2023-05-09T05:22:34.548Z,77.64
2023-05-09T05:23:34.519Z,75.62
2023-05-09T05:24:34.491Z,76.15
2023-05-09T05:25:34.563Z,74.37
2023-05-09T05:26:34.481Z,72.31
2023-05-09T05:27:34.476Z,71.57
2023-05-09T05:28:34.465Z,70.36
2023-05-09T05:29:34.543Z,68.78
2023-05-09T05:30:35.434Z,67.50
2023-05-09T05:31:34.498Z,67.40
2023-05-09T05:32:34.488Z,67.33
2023-05-09T05:33:34.466Z,68.34
2023-05-09T05:34:34.432Z,69.25
2023-05-09T05:35:34.424Z,69.31
2023-05-09T05:36:34.936Z,70.69
2023-05-09T05:37:34.438Z,72.99
2023-05-09T05:38:34.382Z,75.72
2023-05-09T05:39:34.371Z,69.41
2023-05-09T05:40:34.510Z,69.71
2023-05-09T05:41:34.360Z,71.40
2023-05-09T05:42:34.344Z,75.93
2023-05-09T05:43:34.475Z,75.32
2023-05-09T05:44:34.358Z,73.46
2023-05-09T05:45:34.427Z,73.77
2023-05-09T05:46:34.299Z,75.59
2023-05-09T05:47:34.314Z,75.52
2023-05-09T05:48:34.305Z,75.96
2023-05-09T05:49:34.296Z,71.73
2023-05-09T05:50:34.385Z,73.87
2023-05-09T05:51:34.278Z,75.86
2023-05-09T05:52:34.251Z,77.38
2023-05-09T05:53:34.282Z,76.47
2023-05-09T05:54:34.276Z,75.32
2023-05-09T05:55:34.253Z,71.57
2023-05-09T05:56:34.202Z,72.44
2023-05-09T05:57:34.231Z,70.89
2023-05-09T05:58:34.193Z,70.86
2023-05-09T05:59:34.203Z,69.01
2023-05-09T06:00:34.209Z,72.52
2023-05-09T06:01:34.262Z,73.43
2023-05-09T06:02:34.231Z,70.48
2023-05-09T06:03:34.280Z,72.82
2023-05-09T06:04:34.190Z,71.80
2023-05-09T06:05:34.144Z,75.52
2023-05-09T06:06:34.202Z,73.56
2023-05-09T06:07:34.227Z,71.00
2023-05-09T06:08:34.137Z,70.56
2023-05-09T06:09:34.124Z,67.63
2023-05-09T06:10:34.121Z,67.05
2023-05-09T06:11:34.141Z,67.69
2023-05-09T06:12:34.068Z,69.51
2023-05-09T06:13:34.089Z,69.51
2023-05-09T06:14:34.071Z,69.85
2023-05-09T06:15:34.059Z,69.65
2023-05-09T06:16:34.082Z,71.47
2023-05-09T06:17:34.156Z,73.66
2023-05-09T06:18:34.131Z,70.49
2023-05-09T06:19:34.035Z,70.73
2023-05-09T06:20:34.010Z,67.19
2023-05-09T06:21:34.011Z,66.19
2023-05-09T06:22:34.003Z,64.34
2023-05-09T06:23:34.007Z,64.75
2023-05-09T06:24:36.097Z,64.37
2023-05-09T06:25:33.977Z,65.78
2023-05-09T06:26:33.950Z,62.64
2023-05-09T06:27:33.950Z,60.71
2023-05-09T06:28:33.960Z,59.29
2023-05-09T06:29:34.096Z,56.50
2023-05-09T06:30:34.030Z,57.35
2023-05-09T06:31:33.992Z,58.70
2023-05-09T06:32:33.988Z,57.26
2023-05-09T06:33:34.012Z,55.45
2023-05-09T06:34:33.894Z,56.85
2023-05-09T06:35:33.886Z,55.71
2023-05-09T06:36:33.943Z,58.54
2023-05-09T06:37:33.859Z,56.66
2023-05-09T06:38:33.853Z,58.84
2023-05-09T06:39:33.880Z,57.61
2023-05-09T06:40:33.842Z,58.79
2023-05-09T06:41:33.843Z,57.23
2023-05-09T06:42:33.842Z,55.35
2023-05-09T06:43:33.830Z,57.26
2023-05-09T06:44:33.825Z,56.02
2023-05-09T06:45:33.914Z,56.30
2023-05-09T06:46:33.833Z,53.77
2023-05-09T06:47:33.871Z,55.20
2023-05-09T06:48:33.815Z,54.07
2023-05-09T06:49:33.779Z,57.46
2023-05-09T06:50:34.035Z,61.21
2023-05-09T06:51:33.761Z,58.90
2023-05-09T06:52:33.748Z,58.20
2023-05-09T06:53:33.745Z,62.51
2023-05-09T06:54:33.798Z,60.63
2023-05-09T06:55:33.740Z,60.84
2023-05-09T06:56:33.712Z,60.97
2023-05-09T06:57:33.701Z,61.21
2023-05-09T06:58:33.707Z,60.91
2023-05-09T06:59:33.832Z,60.05
2023-05-09T07:00:33.723Z,57.03
2023-05-09T07:01:33.709Z,56.40
2023-05-09T07:02:33.680Z,57.23
2023-05-09T07:03:33.673Z,56.98
2023-05-09T07:04:33.731Z,61.05
2023-05-09T07:05:33.805Z,55.60
2023-05-09T07:06:33.639Z,53.94
2023-05-09T07:07:33.654Z,54.64
2023-05-09T07:08:33.652Z,56.24
2023-05-09T07:09:33.648Z,55.74
2023-05-09T07:10:33.588Z,53.92
2023-05-09T07:11:33.587Z,56.57
2023-05-09T07:12:33.991Z,56.61
2023-05-09T07:13:33.619Z,57.98
2023-05-09T07:14:33.570Z,57.51
2023-05-09T07:15:41.329Z,56.96
2023-05-09T07:16:37.320Z,55.57
2023-05-09T07:17:33.608Z,54.64
2023-05-09T07:18:33.554Z,54.17
2023-05-09T07:19:33.567Z,54.67
2023-05-09T07:20:33.520Z,55.87
2023-05-09T07:21:33.606Z,54.17
2023-05-09T07:22:35.532Z,56.48
2023-05-09T07:23:34.054Z,56.93
2023-05-09T07:24:33.487Z,57.15
2023-05-09T07:25:33.512Z,59.16
2023-05-09T07:26:33.628Z,59.61
2023-05-09T07:27:33.486Z,58.75
2023-05-09T07:28:33.464Z,55.82
2023-05-09T07:29:33.470Z,55.52
2023-05-09T07:30:33.440Z,53.94
2023-05-09T07:31:35.301Z,54.50
2023-05-09T07:32:33.461Z,54.60
2023-05-09T07:33:33.517Z,56.63
2023-05-09T07:34:33.485Z,57.00
2023-05-09T07:35:33.428Z,56.30
2023-05-09T07:36:35.391Z,55.90
2023-05-09T07:37:33.489Z,57.10
2023-05-09T07:38:33.386Z,55.67
2023-05-09T07:39:33.371Z,55.30
2023-05-09T07:40:33.397Z,56.24
2023-05-09T07:41:33.354Z,56.77
2023-05-09T07:42:33.367Z,56.52
2023-05-09T07:43:33.350Z,54.82
2023-05-09T07:44:33.340Z,55.19
2023-05-09T07:45:33.357Z,54.49
2023-05-09T07:46:33.325Z,56.07
2023-05-09T07:47:33.480Z,55.27
2023-05-09T07:48:33.332Z,57.35
2023-05-09T07:49:33.297Z,58.86
2023-05-09T07:50:33.302Z,59.20
2023-05-09T07:51:33.294Z,57.42
2023-05-09T07:52:33.251Z,57.35
2023-05-09T07:53:33.352Z,61.70
2023-05-09T07:54:33.313Z,61.25
2023-05-09T07:55:33.262Z,61.25
2023-05-09T07:56:33.242Z,61.10
2023-05-09T07:57:33.287Z,58.89
2023-05-09T07:58:33.233Z,59.39
2023-05-09T07:59:33.293Z,60.53
2023-05-09T08:00:33.269Z,58.06
2023-05-09T08:01:33.209Z,58.64
2023-05-09T08:02:33.291Z,58.87
2023-05-09T08:03:33.221Z,60.91
2023-05-09T08:04:33.231Z,59.38
2023-05-09T08:05:33.244Z,59.41
2023-05-09T08:06:33.185Z,61.44
2023-05-09T08:07:33.155Z,61.57
2023-05-09T08:08:33.158Z,61.17
2023-05-09T08:09:33.248Z,62.04
2023-05-09T08:10:33.125Z,62.81
2023-05-09T08:11:33.177Z,61.34
2023-05-09T08:12:33.319Z,60.94
2023-05-09T08:13:33.123Z,61.57
2023-05-09T08:14:33.115Z,62.58
2023-05-09T08:15:33.145Z,62.75
2023-05-09T08:16:33.170Z,62.45
2023-05-09T08:17:33.183Z,62.30
2023-05-09T08:18:33.065Z,63.01
2023-05-09T08:19:33.067Z,63.54
2023-05-09T08:20:33.052Z,63.04
2023-05-09T08:21:33.063Z,63.24
2023-05-09T08:22:33.030Z,63.82
2023-05-09T08:23:33.037Z,62.71
2023-05-09T08:24:33.014Z,62.71
2023-05-09T08:25:33.100Z,63.08
2023-05-09T08:26:33.002Z,63.05
2023-05-09T08:27:33.037Z,63.08
2023-05-09T08:28:33.052Z,62.81
2023-05-09T08:29:32.975Z,63.24
2023-05-09T08:30:33.013Z,63.75
2023-05-09T08:31:32.983Z,63.62
2023-05-09T08:32:32.979Z,64.39
2023-05-09T08:33:32.938Z,64.26
2023-05-09T08:34:32.933Z,62.52
2023-05-09T08:35:32.946Z,61.88
2023-05-09T08:36:33.023Z,60.31
2023-05-09T08:37:32.910Z,62.02
2023-05-09T08:38:32.974Z,62.52
2023-05-09T08:39:33.020Z,61.31
2023-05-09T08:40:32.887Z,61.82
2023-05-09T08:41:32.961Z,61.82
2023-05-09T08:42:32.898Z,62.95
2023-05-09T08:43:32.858Z,61.41
2023-05-09T08:44:32.850Z,60.75
2023-05-09T08:45:32.877Z,60.82
2023-05-09T08:46:32.905Z,62.00
2023-05-09T08:47:32.830Z,58.76
2023-05-09T08:48:34.055Z,57.35
2023-05-09T08:49:32.819Z,57.96
2023-05-09T08:50:33.078Z,57.83
2023-05-09T08:51:32.807Z,58.73
2023-05-09T08:52:32.896Z,58.70
2023-05-09T08:53:32.775Z,57.40
2023-05-09T08:54:32.790Z,58.00
2023-05-09T08:55:32.765Z,57.30
2023-05-09T08:56:32.760Z,59.20
2023-05-09T08:57:32.839Z,57.23
2023-05-09T08:58:32.788Z,59.69
2023-05-09T08:59:32.745Z,60.77
2023-05-09T09:00:32.719Z,61.04
2023-05-09T09:01:32.750Z,59.00
2023-05-09T09:02:32.773Z,57.57
2023-05-09T09:03:33.411Z,58.75
2023-05-09T09:04:32.783Z,57.17
2023-05-09T09:05:41.365Z,59.03
2023-05-09T09:06:33.667Z,58.79
2023-05-09T09:07:32.665Z,59.25
2023-05-09T09:08:32.643Z,60.91
2023-05-09T09:09:32.714Z,61.82
2023-05-09T09:10:32.674Z,61.14
2023-05-09T09:11:32.609Z,62.05
2023-05-09T09:12:32.623Z,62.35
2023-05-09T09:13:32.715Z,62.10
2023-05-09T09:14:32.623Z,62.35
2023-05-09T09:15:32.603Z,62.52
2023-05-09T09:16:32.639Z,61.02
2023-05-09T09:17:32.743Z,59.49
2023-05-09T09:18:32.633Z,59.77
2023-05-09T09:19:32.799Z,57.43
2023-05-09T09:20:32.627Z,58.96
2023-05-09T09:21:32.537Z,56.85
2023-05-09T09:22:32.539Z,58.16
2023-05-09T09:23:32.524Z,56.91
2023-05-09T09:24:32.917Z,59.42
2023-05-09T09:25:32.526Z,57.81
2023-05-09T09:26:32.530Z,57.48
2023-05-09T09:27:32.478Z,56.65
2023-05-09T09:28:32.483Z,56.76
2023-05-09T09:29:32.568Z,56.65
2023-05-09T09:30:32.466Z,56.85
2023-05-09T09:31:32.547Z,55.90
2023-05-09T09:32:32.496Z,55.80
2023-05-09T09:33:32.482Z,56.52
2023-05-09T09:34:32.443Z,55.52
2023-05-09T09:35:32.409Z,54.60
2023-05-09T09:36:32.475Z,54.70
2023-05-09T09:37:32.417Z,54.12
2023-05-09T09:38:32.451Z,54.85
2023-05-09T09:39:32.391Z,55.47
2023-05-09T09:40:32.398Z,57.18
2023-05-09T09:41:32.368Z,56.76
2023-05-09T09:42:32.372Z,57.23
2023-05-09T09:43:32.416Z,56.65
2023-05-09T09:44:32.451Z,54.38
2023-05-09T09:45:32.427Z,55.38
2023-05-09T09:46:32.444Z,55.78
2023-05-09T09:47:32.397Z,56.58
2023-05-09T09:48:32.331Z,57.26
2023-05-09T09:49:32.344Z,55.22
2023-05-09T09:50:32.347Z,54.93
2023-05-09T09:51:32.285Z,53.85
2023-05-09T09:52:32.318Z,55.82
2023-05-09T09:53:32.275Z,55.90
2023-05-09T09:54:32.276Z,54.90
2023-05-09T09:55:32.389Z,54.37
2023-05-09T09:56:32.272Z,55.27
2023-05-09T09:57:32.239Z,54.07
2023-05-09T09:58:32.274Z,53.55
2023-05-09T09:59:32.213Z,53.47
2023-05-09T10:00:32.213Z,54.43
2023-05-09T10:01:32.256Z,57.26
2023-05-09T10:02:32.256Z,57.26
2023-05-09T10:03:32.257Z,53.95
2023-05-09T10:04:32.226Z,56.48
2023-05-09T10:05:32.200Z,55.35
2023-05-09T10:06:32.158Z,54.85
2023-05-09T10:07:32.198Z,55.55
2023-05-09T10:08:32.290Z,55.25
2023-05-09T10:09:32.195Z,55.88
2023-05-09T10:10:32.147Z,55.83
2023-05-09T10:11:32.118Z,58.17
2023-05-09T10:12:32.131Z,57.14
2023-05-09T10:13:32.188Z,58.67
2023-05-09T10:14:34.239Z,58.94
2023-05-09T10:15:41.374Z,58.14
2023-05-09T10:16:43.824Z,59.32
2023-05-09T10:17:33.408Z,59.29
2023-05-09T10:18:32.264Z,57.98
2023-05-09T10:19:32.079Z,57.68
2023-05-09T10:20:32.067Z,58.18
2023-05-09T10:21:32.023Z,57.15
2023-05-09T10:22:32.037Z,56.96
2023-05-09T10:23:32.088Z,57.18
2023-05-09T10:24:32.088Z,58.69
2023-05-09T10:25:31.997Z,59.39
2023-05-09T10:26:32.040Z,56.96
2023-05-09T10:27:31.990Z,57.33
2023-05-09T10:28:32.026Z,57.33
2023-05-09T10:29:31.978Z,57.03
2023-05-09T10:30:33.935Z,56.57
2023-05-09T10:31:32.036Z,55.87
2023-05-09T10:32:31.998Z,53.64
2023-05-09T10:33:32.039Z,54.77
2023-05-09T10:34:31.967Z,55.10
2023-05-09T10:35:32.001Z,56.30
2023-05-09T10:36:31.923Z,57.37
2023-05-09T10:37:33.419Z,55.15
2023-05-09T10:38:31.906Z,55.09
2023-05-09T10:39:31.900Z,53.62
2023-05-09T10:40:31.920Z,52.92
2023-05-09T10:41:31.850Z,54.32
2023-05-09T10:42:31.957Z,54.12
2023-05-09T10:43:32.237Z,56.05
2023-05-09T10:44:32.148Z,56.02
2023-05-09T10:45:31.831Z,57.32
2023-05-09T10:46:31.858Z,58.05
2023-05-09T10:47:31.872Z,56.24
2023-05-09T10:48:31.829Z,56.92
2023-05-09T10:49:31.884Z,54.49
2023-05-09T10:50:31.835Z,54.17
2023-05-09T10:51:31.792Z,52.55
2023-05-09T10:52:31.875Z,53.27
2023-05-09T10:53:31.762Z,54.57
2023-05-09T10:54:31.790Z,56.27
2023-05-09T10:55:31.760Z,56.35
2023-05-09T10:56:31.783Z,57.70
2023-05-09T10:57:31.849Z,57.20
2023-05-09T10:58:31.716Z,57.83
2023-05-09T10:59:31.700Z,58.91
2023-05-09T11:00:31.694Z,58.75
2023-05-09T11:01:31.749Z,56.15
2023-05-09T11:02:31.735Z,56.45
2023-05-09T11:03:31.745Z,56.65
2023-05-09T11:04:31.818Z,55.35
2023-05-09T11:05:31.743Z,57.12
2023-05-09T11:06:31.676Z,54.69
2023-05-09T11:07:31.645Z,55.57
2023-05-09T11:08:31.641Z,55.15
2023-05-09T11:09:31.634Z,55.92
2023-05-09T11:10:31.654Z,52.89
2023-05-09T11:11:31.605Z,53.44
2023-05-09T11:13:45.586Z,53.47
2023-05-09T11:14:45.420Z,52.49
2023-05-09T11:15:45.410Z,52.00
2023-05-09T11:16:45.521Z,51.50
2023-05-09T11:17:45.437Z,54.29
2023-05-09T11:18:45.411Z,52.99
2023-05-09T11:19:45.376Z,54.52
2023-05-09T11:20:45.481Z,54.77
2023-05-09T11:21:45.385Z,53.64
2023-05-09T11:22:45.356Z,54.44
2023-05-09T11:23:45.340Z,52.32
2023-05-09T11:24:45.341Z,54.77
2023-05-09T11:25:45.340Z,55.29
2023-05-09T11:26:45.335Z,55.59
2023-05-09T11:27:45.336Z,55.19
2023-05-09T11:28:45.316Z,52.74
2023-05-09T11:29:45.298Z,51.82
2023-05-09T11:30:45.309Z,52.19
2023-05-09T11:31:45.305Z,53.22
2023-05-09T11:32:45.445Z,54.02
2023-05-09T11:33:45.282Z,54.52
2023-05-09T11:34:45.316Z,54.82
2023-05-09T11:35:45.243Z,53.84
2023-05-09T11:36:45.323Z,52.37
2023-05-09T11:37:45.246Z,51.79
2023-05-09T11:38:45.230Z,54.69
2023-05-09T11:39:45.218Z,54.57
2023-05-09T11:40:45.237Z,53.34
2023-05-09T11:41:45.203Z,54.97
2023-05-09T11:42:45.215Z,55.17
2023-05-09T11:43:45.171Z,54.02
2023-05-09T11:44:45.166Z,53.49
2023-05-09T11:45:45.176Z,51.79
2023-05-09T11:46:45.187Z,53.66
2023-05-09T11:47:45.185Z,50.67
2023-05-09T11:48:45.152Z,50.35
2023-05-09T11:49:45.130Z,49.50
2023-05-09T11:50:45.131Z,49.48
2023-05-09T11:51:45.143Z,49.85
2023-05-09T11:52:45.198Z,49.83
2023-05-09T11:53:45.091Z,48.31
2023-05-09T11:54:45.093Z,49.40
2023-05-09T11:55:45.088Z,48.31
2023-05-09T11:56:45.137Z,46.42
2023-05-09T11:57:45.054Z,46.59
2023-05-09T11:58:45.097Z,47.41
2023-05-09T11:59:45.211Z,46.96
2023-05-09T12:00:45.062Z,46.28
2023-05-09T12:01:45.067Z,49.00
2023-05-09T12:02:45.203Z,48.58
2023-05-09T12:03:45.189Z,50.60
2023-05-09T12:04:45.026Z,49.10
2023-05-09T12:05:44.988Z,49.30
2023-05-09T12:06:45.567Z,49.87
2023-05-09T12:07:45.031Z,47.06
2023-05-09T12:08:45.120Z,48.05
2023-05-09T12:09:45.053Z,48.03
2023-05-09T12:10:44.969Z,47.31
2023-05-09T12:11:44.957Z,47.93
2023-05-09T12:12:44.977Z,47.66
2023-05-09T12:13:44.969Z,48.35
2023-05-09T12:14:44.958Z,45.36
2023-05-09T12:15:45.031Z,45.44
2023-05-09T12:16:44.933Z,45.72
2023-05-09T12:17:44.991Z,46.20
2023-05-09T12:18:44.897Z,49.46
2023-05-09T12:19:44.912Z,45.74
2023-05-09T12:20:44.898Z,46.14
2023-05-09T12:21:44.876Z,47.80
2023-05-09T12:22:44.986Z,49.10
2023-05-09T12:23:44.848Z,49.70
2023-05-09T12:24:44.940Z,49.48
2023-05-09T12:25:44.886Z,48.46
2023-05-09T12:26:44.875Z,47.68
2023-05-09T12:27:44.816Z,48.63
2023-05-09T12:28:44.816Z,48.80
2023-05-09T12:29:44.795Z,46.51
2023-05-09T12:30:44.801Z,46.66
2023-05-09T12:31:44.860Z,46.80
2023-05-09T12:32:44.821Z,48.32
2023-05-09T12:33:44.799Z,47.10
2023-05-09T12:34:44.785Z,48.70
2023-05-09T12:35:44.762Z,47.98
2023-05-09T12:36:44.838Z,46.46
2023-05-09T12:37:44.793Z,47.83
2023-05-09T12:38:44.743Z,46.12
2023-05-09T12:39:44.720Z,44.80
2023-05-09T12:40:44.803Z,44.88
2023-05-09T12:41:57.290Z,44.98
2023-05-09T12:42:45.776Z,45.90
2023-05-09T12:43:44.684Z,45.79
2023-05-09T12:44:44.707Z,43.90
2023-05-09T12:45:44.669Z,43.43
2023-05-09T12:46:45.386Z,45.44
2023-05-09T12:47:44.706Z,43.45
2023-05-09T12:48:44.691Z,44.23
2023-05-09T12:49:44.695Z,43.30
2023-05-09T12:50:44.650Z,43.33
2023-05-09T12:51:44.626Z,45.30
2023-05-09T12:53:01.481Z,46.01
2023-05-09T12:53:45.643Z,46.20